Nearby METAR Reports

 

EGNR - Hawarden (aut), United Kingdom
Distance from station: ESE 33mi, 53km
Updated: 18/05/2021 18:20
Partly cloudy
Partly cloudy
 Wind from SSW
Wind: SSW 7 mph , 11 km/h
Temperature: 12°C
Dew Point: 8°C
Humidity: 77%
Barometer: 1013 hPa
Clouds: Partly cloudy
Visibility: 6 miles , 10 km
Cloud details: Few Clouds 549 m
Partly cloudy 1463 m
2021/05/18 17:20 EGNR 181720Z 21006KT 9999 FEW018 SCT048 12/08 Q1013
EGOV - Valley Raf, United Kingdom
Distance from station: W 33mi, 53km
Updated: 18/05/2021 17:50
Few Clouds
Few Clouds
 Wind from SW
Wind: SW 12 mph , 19 km/h
Temperature: 13°C
Dew Point: 7°C
Humidity: 67%
Barometer: 1013 hPa
Clouds: Few Clouds
Visibility: 6 miles , 10 km
Cloud details: Few Clouds 671 m
2021/05/18 16:50 EGOV 181650Z 23010KT 9999 FEW022CB 13/07 Q1013 NOSIG RMK BLU BLU
 
EGGP - Liverpool Airpor, United Kingdom
Distance from station: E 37mi, 59km
Updated: 18/05/2021 18:20
Clear
Clear
 Wind from W
Wind: W 7 mph , 11 km/h
Temperature: 16°C
Dew Point: 6°C
Humidity: 52%
Barometer: 1012 hPa
Summary: Clear
Visibility: greater than 7 miles , 10 km
2021/05/18 17:20 EGGP 181720Z 26006KT 200V310 CAVOK 16/06 Q1012
EGNH - Blackpool Airpor, United Kingdom
Distance from station: NE 44mi, 72km
Updated: 18/05/2021 18:20
Clear
Clear
 Wind from W
Wind: W 8 mph , 13 km/h
Temperature: 13°C
Dew Point: 7°C
Humidity: 67%
Barometer: 1012 hPa
Summary: Clear
Visibility: greater than 7 miles , 10 km
2021/05/18 17:20 EGNH 181720Z 28007KT CAVOK 13/07 Q1012
 
EGNO - Wharton, United Kingdom
Distance from station: NE 47mi, 76km
Updated: 18/05/2021 18:20
Few Clouds
Few Clouds
 Wind from W
Wind: W 9 mph , 15 km/h
Temperature: 14°C
Dew Point: 6°C
Humidity: 59%
Barometer: 1012 hPa
Clouds: Few Clouds
Visibility: 6 miles , 10 km
Cloud details: Few Clouds 1036 m
2021/05/18 17:20 EGNO 181720Z 28008KT 260V330 9999 FEW034 14/06 Q1012
EGOS - Shawbury Raf, United Kingdom
Distance from station: SE 56mi, 89km
Updated: 18/05/2021 17:50
Light rain, Showers, Mostly cloudy
Light rain, Showers, Mostly cloudy
 Wind from N
Wind: N 9 mph , 15 km/h
Temperature: 10°C
Wind Chill: 8°C
Dew Point: 9°C
Humidity: 94%
Barometer: 1012 hPa
Summary: Light rain, Showers
Clouds: Mostly cloudy
Visibility: 6 miles , 10 km
Cloud details: Mostly cloudy 1067 m
2021/05/18 16:50 EGOS 181650Z 36008KT 9999 -SHRA BKN035TCU 10/09 Q1012 RESHRA NOSIG RMK BLU BLU
 
EGCC - Manchester Intl, United Kingdom
Distance from station: E 61mi, 98km
Updated: 18/05/2021 18:20
Clear
Clear
 Wind from SW
Wind: SW 7 mph , 11 km/h
Temperature: 13°C
Dew Point: 7°C
Humidity: 67%
Barometer: 1012 hPa
Clouds: Clear
Visibility: 6 miles , 10 km
2021/05/18 17:20 EGCC 181720Z AUTO 23006KT 190V260 9999 NCD 13/07 Q1012 NOSIG
EGNS - Isle Of Man/Rona, United Kingdom
Distance from station: NW 66mi, 107km
Updated: 18/05/2021 18:20
Few Clouds
Few Clouds
 Wind from WSW
Wind: WSW 13 mph , 20 km/h
Temperature: 12°C
Dew Point: 7°C
Humidity: 72%
Barometer: 1012 hPa
Clouds: Few Clouds
Visibility: 6 miles , 10 km
Cloud details: Few Clouds 610 m
2021/05/18 17:20 EGNS 181720Z 24011KT 9999 FEW020CB 12/07 Q1012 NOSIG
 
EGNM - Leeds And Bradfo, United Kingdom
Distance from station: ENE 95mi, 153km
Updated: 18/05/2021 18:20
Few Clouds
Few Clouds
 Wind from W
Wind: W 13 mph , 20 km/h
Temperature: 14°C
Dew Point: 2°C
Humidity: 44%
Barometer: 1011 hPa
Clouds: Few Clouds
Visibility: 6 miles , 10 km
Cloud details: Few Clouds 1433 m
2021/05/18 17:20 EGNM 181720Z 27011KT 9999 FEW047 14/02 Q1011
EGBB - Birmingham Airpo, United Kingdom
Distance from station: ESE 100mi, 161km
Updated: 18/05/2021 18:20
Nearby showers, Partly cloudy
Nearby showers, Partly cloudy
 Wind from SSW
Wind: SSW 5 mph , 7 km/h
Temperature: 11°C
Dew Point: 7°C
Humidity: 77%
Barometer: 1012 hPa
Summary: Nearby Showers
Clouds: Partly cloudy
Visibility: 6 miles , 10 km
Cloud details: Few Clouds 366 m
Partly cloudy 1463 m
2021/05/18 17:20 EGBB 181720Z 21004KT 9999 VCSH FEW012CB SCT048 11/07 Q1012 RERA